createdAt,value
2018-06-01T00:00:46.074Z,99.99
2018-06-01T00:01:46.009Z,99.99
2018-06-01T00:02:46.019Z,99.99
2018-06-01T00:03:46.017Z,99.99
2018-06-01T00:04:46.023Z,99.99
2018-06-01T00:05:46.027Z,99.99
2018-06-01T00:06:46.032Z,99.99
2018-06-01T00:07:46.037Z,99.99
2018-06-01T00:08:46.044Z,99.99
2018-06-01T00:09:46.046Z,99.99
2018-06-01T00:10:46.052Z,99.99
2018-06-01T00:11:46.060Z,99.99
2018-06-01T00:12:46.062Z,99.99
2018-06-01T00:13:46.069Z,99.99
2018-06-01T00:14:46.071Z,99.99
2018-06-01T00:15:46.076Z,99.99
2018-06-01T00:16:46.086Z,99.99
2018-06-01T00:17:46.085Z,99.99
2018-06-01T00:18:46.093Z,99.99
2018-06-01T00:19:46.095Z,99.99
2018-06-01T00:20:46.103Z,99.99
2018-06-01T00:21:46.104Z,99.99
2018-06-01T00:22:46.111Z,99.99
2018-06-01T00:23:46.114Z,99.99
2018-06-01T00:24:46.118Z,99.99
2018-06-01T00:25:46.125Z,99.99
2018-06-01T00:26:46.130Z,99.99
2018-06-01T00:27:46.133Z,99.99
2018-06-01T00:28:46.141Z,99.99
2018-06-01T00:29:46.147Z,99.99
2018-06-01T00:30:46.148Z,99.99
2018-06-01T00:31:46.152Z,99.99
2018-06-01T00:32:46.157Z,99.99
2018-06-01T00:33:46.164Z,99.99
2018-06-01T00:34:46.167Z,99.99
2018-06-01T00:35:46.171Z,99.99
2018-06-01T00:36:46.176Z,99.99
2018-06-01T00:37:46.181Z,99.99
2018-06-01T00:38:46.188Z,99.99
2018-06-01T00:39:46.190Z,99.99
2018-06-01T00:40:46.194Z,99.99
2018-06-01T00:41:46.202Z,99.99
2018-06-01T00:42:46.204Z,99.99
2018-06-01T00:43:46.211Z,99.99
2018-06-01T00:44:46.214Z,99.99
2018-06-01T00:45:46.218Z,99.99
2018-06-01T00:46:46.224Z,99.99
2018-06-01T00:47:46.227Z,99.99
2018-06-01T00:48:46.232Z,99.99
2018-06-01T00:49:46.237Z,99.99
2018-06-01T00:50:46.241Z,99.99
2018-06-01T00:51:46.245Z,99.99
2018-06-01T00:52:46.250Z,99.99
2018-06-01T00:53:46.254Z,99.99
2018-06-01T00:54:46.267Z,99.99
2018-06-01T00:55:46.262Z,99.99
2018-06-01T00:56:46.267Z,99.99
2018-06-01T00:57:46.272Z,99.99
2018-06-01T00:58:46.277Z,99.99
2018-06-01T00:59:46.280Z,99.99
2018-06-01T01:00:46.285Z,99.99
2018-06-01T01:01:46.294Z,99.99
2018-06-01T01:02:46.295Z,99.99
2018-06-01T01:03:46.298Z,99.99
2018-06-01T01:04:46.303Z,99.99
2018-06-01T01:05:46.307Z,99.99
2018-06-01T01:06:46.312Z,99.99
2018-06-01T01:07:46.315Z,99.99
2018-06-01T01:08:46.320Z,99.99
2018-06-01T01:09:46.325Z,99.99
2018-06-01T01:10:46.329Z,99.99
2018-06-01T01:11:46.334Z,99.99
2018-06-01T01:12:46.338Z,99.99
2018-06-01T01:13:46.342Z,99.99
2018-06-01T01:14:46.346Z,99.99
2018-06-01T01:15:46.351Z,99.99
2018-06-01T01:16:46.356Z,99.99
2018-06-01T01:17:46.362Z,99.99
2018-06-01T01:18:46.363Z,99.99
2018-06-01T01:19:46.369Z,99.99
2018-06-01T01:20:46.371Z,99.99
2018-06-01T01:21:46.382Z,99.99
2018-06-01T01:22:46.381Z,99.99
2018-06-01T01:23:46.387Z,99.99
2018-06-01T01:24:46.389Z,99.99
2018-06-01T01:25:46.392Z,99.99
2018-06-01T01:26:46.397Z,99.99
2018-06-01T01:27:46.400Z,99.99
2018-06-01T01:28:46.406Z,99.99
2018-06-01T01:29:46.409Z,99.99
2018-06-01T01:30:46.413Z,99.99
2018-06-01T01:31:46.416Z,99.99
2018-06-01T01:32:46.422Z,99.99
2018-06-01T01:33:46.431Z,99.99
2018-06-01T01:34:46.429Z,99.99
2018-06-01T01:35:46.433Z,99.99
2018-06-01T01:36:46.439Z,99.99
2018-06-01T01:37:46.443Z,99.99
2018-06-01T01:38:46.447Z,99.99
2018-06-01T01:39:46.450Z,99.99
2018-06-01T01:40:46.455Z,99.99
2018-06-01T01:41:46.458Z,99.99
2018-06-01T01:42:46.464Z,99.99
2018-06-01T01:43:46.468Z,99.99
2018-06-01T01:44:46.475Z,99.99
2018-06-01T01:45:46.477Z,99.99
2018-06-01T01:46:46.481Z,99.99
2018-06-01T01:47:46.484Z,99.99
2018-06-01T01:48:46.487Z,99.99
2018-06-01T01:49:46.493Z,99.99
2018-06-01T01:50:46.497Z,99.99
2018-06-01T01:51:46.501Z,99.99
2018-06-01T01:52:46.506Z,99.99
2018-06-01T01:53:46.510Z,99.99
2018-06-01T01:54:46.515Z,99.99
2018-06-01T01:55:46.524Z,99.99
2018-06-01T01:56:46.521Z,99.99
2018-06-01T01:57:46.527Z,99.99
2018-06-01T01:58:46.531Z,99.99
2018-06-01T01:59:46.533Z,99.99
2018-06-01T02:00:46.539Z,99.99
2018-06-01T02:01:46.543Z,99.99
2018-06-01T02:02:46.547Z,99.99
2018-06-01T02:03:46.554Z,99.99
2018-06-01T02:04:46.555Z,99.99
2018-06-01T02:05:46.563Z,99.99
2018-06-01T02:06:46.565Z,99.99
2018-06-01T02:07:46.567Z,99.99
2018-06-01T02:08:46.573Z,99.99
2018-06-01T02:09:46.577Z,99.99
2018-06-01T02:10:46.581Z,99.99
2018-06-01T02:11:46.585Z,99.99
2018-06-01T02:12:46.590Z,99.99
2018-06-01T02:13:46.594Z,99.99
2018-06-01T02:14:46.600Z,99.99
2018-06-01T02:15:46.602Z,99.99
2018-06-01T02:16:46.606Z,99.99
2018-06-01T02:17:46.615Z,99.99
2018-06-01T02:18:46.620Z,99.99
2018-06-01T02:19:46.619Z,99.99
2018-06-01T02:20:46.625Z,99.99
2018-06-01T02:21:46.628Z,99.99
2018-06-01T02:22:46.632Z,99.99
2018-06-01T02:23:46.636Z,99.99
2018-06-01T02:24:46.641Z,99.99
2018-06-01T02:25:46.650Z,99.99
2018-06-01T02:26:46.650Z,99.99
2018-06-01T02:27:46.653Z,99.99
2018-06-01T02:28:46.657Z,99.99
2018-06-01T02:29:46.662Z,99.99
2018-06-01T02:30:46.666Z,99.99
2018-06-01T02:31:46.680Z,99.99
2018-06-01T02:32:46.676Z,99.99
2018-06-01T02:33:46.680Z,99.99
2018-06-01T02:34:46.685Z,99.99
2018-06-01T02:35:46.686Z,99.99
2018-06-01T02:36:46.697Z,99.99
2018-06-01T02:37:46.697Z,99.99
2018-06-01T02:38:46.700Z,99.99
2018-06-01T02:39:46.704Z,99.99
2018-06-01T02:40:46.709Z,99.99
2018-06-01T02:41:46.713Z,99.99
2018-06-01T02:42:46.718Z,99.99
2018-06-01T02:43:46.723Z,99.99
2018-06-01T02:44:46.726Z,99.99
2018-06-01T02:45:46.731Z,99.99
2018-06-01T02:46:46.735Z,99.99
2018-06-01T02:47:46.739Z,99.99
2018-06-01T02:48:46.743Z,99.99
2018-06-01T02:49:46.748Z,99.99
2018-06-01T02:50:46.753Z,99.99
2018-06-01T02:51:46.756Z,99.99
2018-06-01T02:52:46.760Z,99.99
2018-06-01T02:53:46.765Z,99.99
2018-06-01T02:54:46.770Z,99.99
2018-06-01T02:55:46.772Z,99.99
2018-06-01T02:56:46.778Z,99.99
2018-06-01T02:57:46.782Z,99.99
2018-06-01T02:58:46.786Z,99.99
2018-06-01T02:59:46.790Z,99.99
2018-06-01T03:00:46.794Z,99.99
2018-06-01T03:01:46.799Z,99.99
2018-06-01T03:02:46.803Z,99.99
2018-06-01T03:03:46.807Z,99.99
2018-06-01T03:04:46.811Z,99.99
2018-06-01T03:05:46.816Z,99.99
2018-06-01T03:06:46.820Z,99.99
2018-06-01T03:07:46.823Z,99.99
2018-06-01T03:08:46.829Z,99.99
2018-06-01T03:09:46.833Z,99.99
2018-06-01T03:10:46.837Z,99.99
2018-06-01T03:11:46.841Z,99.99
2018-06-01T03:12:46.844Z,99.99
2018-06-01T03:13:46.850Z,99.99
2018-06-01T03:14:46.855Z,99.99
2018-06-01T03:15:46.858Z,99.99
2018-06-01T03:16:46.864Z,99.99
2018-06-01T03:17:46.867Z,99.99
2018-06-01T03:18:46.871Z,99.99
2018-06-01T03:19:46.875Z,99.99
2018-06-01T03:20:46.880Z,99.99
2018-06-01T03:21:46.884Z,99.99
2018-06-01T03:22:46.888Z,99.99
2018-06-01T03:23:46.892Z,99.99
2018-06-01T03:24:46.896Z,99.99
2018-06-01T03:25:46.900Z,99.99
2018-06-01T03:26:46.905Z,99.99
2018-06-01T03:27:46.908Z,99.99
2018-06-01T03:28:46.912Z,99.99
2018-06-01T03:29:46.916Z,99.99
2018-06-01T03:30:46.923Z,99.99
2018-06-01T03:31:46.930Z,99.99
2018-06-01T03:32:46.929Z,99.99
2018-06-01T03:33:46.934Z,99.99
2018-06-01T03:34:46.938Z,99.99
2018-06-01T03:35:46.941Z,99.99
2018-06-01T03:36:46.949Z,99.99
2018-06-01T03:37:46.950Z,99.99
2018-06-01T03:38:46.955Z,99.99
2018-06-01T03:39:46.959Z,99.99
2018-06-01T03:40:46.962Z,99.99
2018-06-01T03:41:46.968Z,99.99
2018-06-01T03:42:46.971Z,99.99
2018-06-01T03:43:46.975Z,99.99
2018-06-01T03:44:46.980Z,99.99
2018-06-01T03:45:46.983Z,99.99
2018-06-01T03:46:46.988Z,99.99
2018-06-01T03:47:46.992Z,99.99
2018-06-01T03:48:46.995Z,99.99
2018-06-01T03:49:47.000Z,99.99
2018-06-01T03:50:47.005Z,99.99
2018-06-01T03:51:47.009Z,99.99
2018-06-01T03:52:47.021Z,99.99
2018-06-01T03:53:47.019Z,99.99
2018-06-01T03:54:47.022Z,99.99
2018-06-01T03:55:47.026Z,99.99
2018-06-01T03:56:47.031Z,99.99
2018-06-01T03:57:47.035Z,99.99
2018-06-01T03:58:47.039Z,99.99
2018-06-01T03:59:47.043Z,99.99
2018-06-01T04:00:47.046Z,99.99
2018-06-01T04:01:47.052Z,99.99
2018-06-01T04:02:47.055Z,99.99
2018-06-01T04:03:47.060Z,99.99
2018-06-01T04:04:47.065Z,99.99
2018-06-01T04:05:47.069Z,99.99
2018-06-01T04:06:47.075Z,99.99
2018-06-01T04:07:47.077Z,99.99
2018-06-01T04:08:47.083Z,99.99
2018-06-01T04:09:47.088Z,99.99
2018-06-01T04:10:47.094Z,99.99
2018-06-01T04:11:47.095Z,99.99
2018-06-01T04:12:47.101Z,99.99
2018-06-01T04:13:47.105Z,99.99
2018-06-01T04:14:47.110Z,99.99
2018-06-01T04:15:47.113Z,99.99
2018-06-01T04:16:47.118Z,99.99
2018-06-01T04:17:47.123Z,99.99
2018-06-01T04:18:47.128Z,99.99
2018-06-01T04:19:47.131Z,99.99
2018-06-01T04:20:47.136Z,99.99
2018-06-01T04:21:47.142Z,99.99
2018-06-01T04:22:47.145Z,99.99
2018-06-01T04:23:47.149Z,99.99
2018-06-01T04:24:47.155Z,99.99
2018-06-01T04:25:47.159Z,99.99
2018-06-01T04:26:47.165Z,99.99
2018-06-01T04:27:47.311Z,99.99
2018-06-01T04:28:47.171Z,99.99
2018-06-01T04:29:47.178Z,99.99
2018-06-01T04:30:47.184Z,99.99
2018-06-01T04:31:47.185Z,99.99
2018-06-01T04:32:47.217Z,99.99
2018-06-01T04:33:47.204Z,99.99
2018-06-01T04:34:47.201Z,99.99
2018-06-01T04:35:47.206Z,99.99
2018-06-01T04:36:47.210Z,99.99
2018-06-01T04:37:47.214Z,99.99
2018-06-01T04:38:47.218Z,99.99
2018-06-01T04:39:47.225Z,99.99
2018-06-01T04:40:47.228Z,99.99
2018-06-01T04:41:47.234Z,99.99
2018-06-01T04:42:47.239Z,99.99
2018-06-01T04:43:47.243Z,99.99
2018-06-01T04:44:47.250Z,99.99
2018-06-01T04:45:47.254Z,99.99
2018-06-01T04:46:47.258Z,99.99
2018-06-01T04:47:47.262Z,99.99
2018-06-01T04:48:47.267Z,99.99
2018-06-01T04:49:47.272Z,99.99
2018-06-01T04:50:47.277Z,99.99
2018-06-01T04:51:47.282Z,99.99
2018-06-01T04:52:47.288Z,99.99
2018-06-01T04:53:47.292Z,99.99
2018-06-01T04:54:47.298Z,99.99
2018-06-01T04:55:47.302Z,99.99
2018-06-01T04:56:47.307Z,99.99
2018-06-01T04:57:47.312Z,99.99
2018-06-01T04:58:47.318Z,99.99
2018-06-01T04:59:47.322Z,99.99
2018-06-01T05:00:47.327Z,99.99
2018-06-01T05:01:47.333Z,99.99
2018-06-01T05:02:47.340Z,99.99
2018-06-01T05:03:47.343Z,99.99
2018-06-01T05:04:47.349Z,99.99
2018-06-01T05:05:47.354Z,99.99
2018-06-01T05:06:47.359Z,99.99
2018-06-01T05:07:47.364Z,99.99
2018-06-01T05:08:47.370Z,99.99
2018-06-01T05:09:47.376Z,99.99
2018-06-01T05:10:47.381Z,99.99
2018-06-01T05:11:47.386Z,99.99
2018-06-01T05:12:47.392Z,99.99
2018-06-01T05:13:47.398Z,99.99
2018-06-01T05:14:47.437Z,99.99
2018-06-01T05:15:47.409Z,99.99
2018-06-01T05:16:47.414Z,99.99
2018-06-01T05:17:47.426Z,99.99
2018-06-01T05:18:47.427Z,99.99
2018-06-01T05:19:47.432Z,99.99
2018-06-01T05:20:47.439Z,99.99
2018-06-01T05:21:47.448Z,99.99
2018-06-01T05:22:47.454Z,99.99
2018-06-01T05:23:47.459Z,99.99
2018-06-01T05:24:47.466Z,99.99
2018-06-01T05:25:47.474Z,99.99
2018-06-01T05:26:47.484Z,99.99
2018-06-01T05:27:47.491Z,99.99
2018-06-01T05:28:47.497Z,99.99
2018-06-01T05:29:47.507Z,99.99
2018-06-01T05:30:47.512Z,99.99
2018-06-01T05:31:47.521Z,99.99
2018-06-01T05:32:47.524Z,99.99
2018-06-01T05:33:47.533Z,99.99
2018-06-01T05:34:47.546Z,99.99
2018-06-01T05:35:47.548Z,99.99
2018-06-01T05:36:47.556Z,99.99
2018-06-01T05:37:47.562Z,99.99
2018-06-01T05:38:47.569Z,99.99
2018-06-01T05:39:47.575Z,99.99
2018-06-01T05:40:47.589Z,99.99
2018-06-01T05:41:47.591Z,99.99
2018-06-01T05:42:47.598Z,99.99
2018-06-01T05:43:47.603Z,99.99
2018-06-01T05:44:47.609Z,99.99
2018-06-01T05:45:47.617Z,99.99
2018-06-01T05:46:47.624Z,99.99
2018-06-01T05:47:47.629Z,99.99
2018-06-01T05:48:47.636Z,99.99
2018-06-01T05:49:47.643Z,99.99
2018-06-01T05:50:47.649Z,99.99
2018-06-01T05:51:47.654Z,99.99
2018-06-01T05:52:47.662Z,99.99
2018-06-01T05:53:47.668Z,99.99
2018-06-01T05:54:47.676Z,99.99
2018-06-01T05:55:47.682Z,99.99
2018-06-01T05:56:47.687Z,99.99
2018-06-01T05:57:47.693Z,99.99
2018-06-01T05:58:47.700Z,99.99
2018-06-01T05:59:47.714Z,99.99
2018-06-01T06:00:47.712Z,99.99
2018-06-01T06:01:47.720Z,99.99
2018-06-01T06:02:47.726Z,99.99
2018-06-01T06:03:47.732Z,99.99
2018-06-01T06:04:47.738Z,99.99
2018-06-01T06:05:47.746Z,99.99
2018-06-01T06:06:47.752Z,99.99
2018-06-01T06:07:47.758Z,99.99
2018-06-01T06:08:47.765Z,99.99
2018-06-01T06:09:47.772Z,99.99
2018-06-01T06:10:47.778Z,99.99
2018-06-01T06:11:47.785Z,99.99
2018-06-01T06:12:47.792Z,99.99
2018-06-01T06:13:47.799Z,99.99
2018-06-01T06:14:47.805Z,99.99
2018-06-01T06:15:47.812Z,99.99
2018-06-01T06:16:47.819Z,99.99
2018-06-01T06:17:47.830Z,99.99
2018-06-01T06:18:47.834Z,99.99
2018-06-01T06:19:47.873Z,99.99
2018-06-01T06:20:47.847Z,99.99
2018-06-01T06:21:47.856Z,99.99
2018-06-01T06:22:47.862Z,99.99
2018-06-01T06:23:47.869Z,99.99
2018-06-01T06:24:47.876Z,99.99
2018-06-01T06:25:47.883Z,99.99
2018-06-01T06:26:47.892Z,99.99
2018-06-01T06:27:47.898Z,99.99
2018-06-01T06:28:47.905Z,99.99
2018-06-01T06:29:47.913Z,99.99
2018-06-01T06:30:47.921Z,99.99
2018-06-01T06:31:47.926Z,99.99
2018-06-01T06:32:47.935Z,99.99
2018-06-01T06:33:47.943Z,99.99
2018-06-01T06:34:47.952Z,99.99
2018-06-01T06:35:47.958Z,99.99
2018-06-01T06:36:47.966Z,99.99
2018-06-01T06:37:48.011Z,99.99
2018-06-01T06:38:47.984Z,99.99
2018-06-01T06:39:47.989Z,99.99
2018-06-01T06:40:48.001Z,99.99
2018-06-01T06:41:48.005Z,99.99
2018-06-01T06:42:48.014Z,99.99
2018-06-01T06:43:48.022Z,99.99
2018-06-01T06:44:48.029Z,99.99
2018-06-01T06:45:48.037Z,99.99
2018-06-01T06:46:48.045Z,99.99
2018-06-01T06:47:48.052Z,99.99
2018-06-01T06:48:48.062Z,99.99
2018-06-01T06:49:48.069Z,99.84
2018-06-01T06:50:48.077Z,99.26
2018-06-01T06:51:48.085Z,97.67
2018-06-01T06:52:48.094Z,97.77
2018-06-01T06:53:48.105Z,98.15
2018-06-01T06:54:48.112Z,96.26
2018-06-01T06:55:48.119Z,95.54
2018-06-01T06:56:48.127Z,96.12
2018-06-01T06:57:48.136Z,95.93
2018-06-01T06:58:48.145Z,95.64
2018-06-01T06:59:48.153Z,95.93
2018-06-01T07:00:48.170Z,96.84
2018-06-01T07:01:48.169Z,96.75
2018-06-01T07:02:48.209Z,97.91
2018-06-01T07:03:48.187Z,98.97
2018-06-01T07:04:48.195Z,98.58
2018-06-01T07:05:48.206Z,98.73
2018-06-01T07:06:48.215Z,96.75
2018-06-01T07:07:48.223Z,95.97
2018-06-01T07:08:48.231Z,94.13
2018-06-01T07:09:48.245Z,92.78
2018-06-01T07:10:48.249Z,92.30
2018-06-01T07:11:48.258Z,92.00
2018-06-01T07:12:48.266Z,91.72
2018-06-01T07:13:48.275Z,91.62
2018-06-01T07:14:48.285Z,92.30
2018-06-01T07:15:48.294Z,92.30
2018-06-01T07:16:48.302Z,92.20
2018-06-01T07:17:48.312Z,92.00
2018-06-01T07:18:48.323Z,92.00
2018-06-01T07:19:48.329Z,92.40
2018-06-01T07:20:48.339Z,91.42
2018-06-01T07:21:48.349Z,90.21
2018-06-01T07:22:48.357Z,90.41
2018-06-01T07:23:48.364Z,89.63
2018-06-01T07:24:48.377Z,90.02
2018-06-01T07:25:48.384Z,90.60
2018-06-01T07:26:48.393Z,88.95
2018-06-01T07:27:48.416Z,88.76
2018-06-01T07:28:48.412Z,88.85
2018-06-01T07:29:48.421Z,90.26
2018-06-01T07:30:48.430Z,91.14
2018-06-01T07:31:48.439Z,92.97
2018-06-01T07:32:48.448Z,92.64
2018-06-01T07:33:48.457Z,93.26
2018-06-01T07:34:48.467Z,94.09
2018-06-01T07:35:48.475Z,94.67
2018-06-01T07:36:48.486Z,94.28
2018-06-01T07:37:48.496Z,94.09
2018-06-01T07:38:48.547Z,93.51
2018-06-01T07:39:48.511Z,94.28
2018-06-01T07:40:48.522Z,93.51
2018-06-01T07:41:48.530Z,93.51
2018-06-01T07:42:48.539Z,93.70
2018-06-01T07:43:48.548Z,93.90
2018-06-01T07:44:48.558Z,93.70
2018-06-01T07:45:48.567Z,93.80
2018-06-01T07:46:48.635Z,93.60
2018-06-01T07:47:48.585Z,94.18
2018-06-01T07:48:48.593Z,94.67
2018-06-01T07:49:48.603Z,94.86
2018-06-01T07:50:48.610Z,94.67
2018-06-01T07:51:48.619Z,95.01
2018-06-01T07:52:48.628Z,95.20
2018-06-01T07:53:48.637Z,95.49
2018-06-01T07:54:48.646Z,93.80
2018-06-01T07:55:48.653Z,93.95
2018-06-01T07:56:48.663Z,94.82
2018-06-01T07:57:48.673Z,93.95
2018-06-01T07:58:48.680Z,94.82
2018-06-01T07:59:48.688Z,94.53
2018-06-01T08:00:48.697Z,96.94
2018-06-01T08:01:48.706Z,96.26
2018-06-01T08:02:48.715Z,96.65
2018-06-01T08:03:48.721Z,96.75
2018-06-01T08:04:48.731Z,96.75
2018-06-01T08:05:48.739Z,98.00
2018-06-01T08:06:48.748Z,97.67
2018-06-01T08:07:48.760Z,98.73
2018-06-01T08:08:48.769Z,99.31
2018-06-01T08:09:48.774Z,99.94
2018-06-01T08:10:48.783Z,99.99
2018-06-01T08:11:48.789Z,99.99
2018-06-01T08:12:48.798Z,99.99
2018-06-01T08:13:48.808Z,99.89
2018-06-01T08:14:48.852Z,99.21
2018-06-01T08:15:48.823Z,99.21
2018-06-01T08:16:48.830Z,99.74
2018-06-01T08:17:48.842Z,99.84
2018-06-01T08:18:48.847Z,99.99
2018-06-01T08:19:48.858Z,99.99
2018-06-01T08:20:48.863Z,99.99
2018-06-01T08:21:48.871Z,99.99
2018-06-01T08:22:48.880Z,99.99
2018-06-01T08:23:48.888Z,99.99
2018-06-01T08:24:48.897Z,99.99
2018-06-01T08:25:48.904Z,99.99
2018-06-01T08:26:48.911Z,99.99
2018-06-01T08:27:48.918Z,99.99
2018-06-01T08:28:48.927Z,99.99
2018-06-01T08:29:48.941Z,99.99
2018-06-01T08:30:48.943Z,99.99
2018-06-01T08:31:48.950Z,99.99
2018-06-01T08:32:48.957Z,99.99
2018-06-01T08:33:48.965Z,99.99
2018-06-01T08:34:48.973Z,99.99
2018-06-01T08:35:48.980Z,99.99
2018-06-01T08:36:48.986Z,99.99
2018-06-01T08:37:48.994Z,99.99
2018-06-01T08:38:49.005Z,99.99
2018-06-01T08:39:49.008Z,99.99
2018-06-01T08:40:49.016Z,99.99
2018-06-01T08:41:49.023Z,99.99
2018-06-01T08:42:49.032Z,99.99
2018-06-01T08:43:49.038Z,99.99
2018-06-01T08:44:49.049Z,99.99
2018-06-01T08:45:49.050Z,99.99
2018-06-01T08:46:49.058Z,99.99
2018-06-01T08:47:49.065Z,99.99
2018-06-01T08:48:49.073Z,99.99
2018-06-01T08:49:49.080Z,99.99
2018-06-01T08:50:49.085Z,99.99
2018-06-01T08:51:49.096Z,99.99
2018-06-01T08:52:49.103Z,99.99
2018-06-01T08:53:49.107Z,99.99
2018-06-01T08:54:49.114Z,99.99
2018-06-01T08:55:49.120Z,99.99
2018-06-01T08:56:49.128Z,99.99
2018-06-01T08:57:49.134Z,99.99
2018-06-01T08:58:49.142Z,99.99
2018-06-01T08:59:49.149Z,99.99
2018-06-01T09:00:49.155Z,99.99
2018-06-01T09:01:49.162Z,99.99
2018-06-01T09:02:49.171Z,99.99
2018-06-01T09:03:49.175Z,99.99
2018-06-01T09:04:49.184Z,99.99
2018-06-01T09:05:49.189Z,99.99
2018-06-01T09:06:49.197Z,99.99
2018-06-01T09:07:49.203Z,99.99
2018-06-01T09:08:49.215Z,99.99
2018-06-01T09:09:49.216Z,99.99
2018-06-01T09:10:49.223Z,99.99
2018-06-01T09:11:49.236Z,99.99
2018-06-01T09:12:49.237Z,99.99
2018-06-01T09:13:49.249Z,99.99
2018-06-01T09:14:49.251Z,99.99
2018-06-01T09:15:49.256Z,99.99
2018-06-01T09:16:49.285Z,99.99
2018-06-01T09:17:49.270Z,99.99
2018-06-01T09:18:49.278Z,99.99
2018-06-01T09:19:49.282Z,99.99
2018-06-01T09:20:49.293Z,99.99
2018-06-01T09:21:49.298Z,99.99
2018-06-01T09:22:49.305Z,99.99
2018-06-01T09:23:49.310Z,99.99
2018-06-01T09:24:49.317Z,99.99
2018-06-01T09:25:49.327Z,99.99
2018-06-01T09:26:49.338Z,99.99
2018-06-01T09:27:49.338Z,99.99
2018-06-01T09:28:49.345Z,99.99
2018-06-01T09:29:49.352Z,99.99
2018-06-01T09:30:49.359Z,99.99
2018-06-01T09:31:49.365Z,99.99
2018-06-01T09:32:49.373Z,99.99
2018-06-01T09:33:49.379Z,99.99
2018-06-01T09:34:49.386Z,99.99
2018-06-01T09:35:49.392Z,99.99
2018-06-01T09:36:49.401Z,99.99
2018-06-01T09:37:49.406Z,99.99
2018-06-01T09:38:49.413Z,99.99
2018-06-01T09:39:49.419Z,99.99
2018-06-01T09:40:49.426Z,99.99
2018-06-01T09:41:49.434Z,99.99
2018-06-01T09:42:49.440Z,99.99
2018-06-01T09:43:49.447Z,99.99
2018-06-01T09:44:49.453Z,99.99
2018-06-01T09:45:49.462Z,99.99
2018-06-01T09:46:49.470Z,99.99
2018-06-01T09:47:49.472Z,99.99
2018-06-01T09:48:49.479Z,99.99
2018-06-01T09:49:49.486Z,99.99
2018-06-01T09:50:49.493Z,99.99
2018-06-01T09:51:49.501Z,99.99
2018-06-01T09:52:49.510Z,99.99
2018-06-01T09:53:49.513Z,99.99
2018-06-01T09:54:49.520Z,99.99
2018-06-01T09:55:49.526Z,99.99
2018-06-01T09:56:49.533Z,99.99
2018-06-01T09:57:49.539Z,99.99
2018-06-01T09:58:49.550Z,99.99
2018-06-01T09:59:49.551Z,99.99
2018-06-01T10:00:49.559Z,99.99
2018-06-01T10:01:49.565Z,99.99
2018-06-01T10:02:49.572Z,99.99
2018-06-01T10:03:49.579Z,99.99
2018-06-01T10:04:49.586Z,99.99
2018-06-01T10:05:49.593Z,99.99
2018-06-01T10:06:49.599Z,99.99
2018-06-01T10:07:49.607Z,99.99
2018-06-01T10:08:49.613Z,99.99
2018-06-01T10:09:49.620Z,99.99
2018-06-01T10:10:49.627Z,99.99
2018-06-01T10:11:49.633Z,99.99
2018-06-01T10:12:49.639Z,99.99
2018-06-01T10:13:49.646Z,99.99
2018-06-01T10:14:49.652Z,99.99
2018-06-01T10:15:49.662Z,99.99
2018-06-01T10:16:49.667Z,99.99
2018-06-01T10:17:49.672Z,99.99
2018-06-01T10:18:49.679Z,99.99
2018-06-01T10:19:49.685Z,99.99
2018-06-01T10:20:49.691Z,99.99
2018-06-01T10:21:49.699Z,99.99
2018-06-01T10:22:49.705Z,99.99
2018-06-01T10:23:49.711Z,99.99
2018-06-01T10:24:49.717Z,99.99
2018-06-01T10:25:49.723Z,99.99
2018-06-01T10:26:49.730Z,99.99
2018-06-01T10:27:49.736Z,99.99
2018-06-01T10:28:49.742Z,99.99
2018-06-01T10:29:49.750Z,99.99
2018-06-01T10:30:49.756Z,99.99
2018-06-01T10:31:49.763Z,99.99
2018-06-01T10:32:49.767Z,99.99
2018-06-01T10:33:49.774Z,99.99
2018-06-01T10:34:49.780Z,99.99
2018-06-01T10:35:49.787Z,99.99
2018-06-01T10:36:49.792Z,99.99
2018-06-01T10:37:49.799Z,99.99
2018-06-01T10:38:49.809Z,99.99
2018-06-01T10:39:49.812Z,99.99
2018-06-01T10:40:49.819Z,99.99
2018-06-01T10:41:49.825Z,99.99
2018-06-01T10:42:49.831Z,99.99
2018-06-01T10:43:49.840Z,99.99
2018-06-01T10:44:49.844Z,99.99
2018-06-01T10:45:49.851Z,99.99
2018-06-01T10:46:49.860Z,99.99
2018-06-01T10:47:49.864Z,99.99
2018-06-01T10:48:49.873Z,99.99
2018-06-01T10:49:49.879Z,99.99
2018-06-01T10:50:49.887Z,99.99
2018-06-01T10:51:49.892Z,99.99
2018-06-01T10:52:49.900Z,99.99
2018-06-01T10:53:49.908Z,99.99
2018-06-01T10:54:49.916Z,99.99
2018-06-01T10:55:49.923Z,99.99
2018-06-01T10:56:49.930Z,99.99
2018-06-01T10:57:49.942Z,99.99
2018-06-01T10:58:49.948Z,99.99
2018-06-01T10:59:49.954Z,99.99
2018-06-01T11:00:49.963Z,99.99
2018-06-01T11:01:49.972Z,99.99
2018-06-01T11:02:49.986Z,99.99
2018-06-01T11:03:49.993Z,99.99
2018-06-01T11:04:49.998Z,99.99
2018-06-01T11:05:50.009Z,98.05
2018-06-01T11:06:50.028Z,96.45
2018-06-01T11:07:50.026Z,93.15
2018-06-01T11:08:50.038Z,91.99
2018-06-01T11:09:50.045Z,95.73
2018-06-01T11:10:50.056Z,99.99
2018-06-01T11:11:50.069Z,97.76
2018-06-01T11:12:50.074Z,96.06
2018-06-01T11:13:50.126Z,95.15
2018-06-01T11:14:50.096Z,93.98
2018-06-01T11:15:50.106Z,96.26
2018-06-01T11:16:50.116Z,97.76
2018-06-01T11:17:50.127Z,99.99
2018-06-01T11:18:50.137Z,99.55
2018-06-01T11:19:50.147Z,97.61
2018-06-01T11:20:50.156Z,96.45
2018-06-01T11:21:50.168Z,99.99
2018-06-01T11:22:50.182Z,99.46
2018-06-01T11:23:50.189Z,99.99
2018-06-01T11:24:50.201Z,99.99
2018-06-01T11:25:50.209Z,99.12
2018-06-01T11:26:50.220Z,92.97
2018-06-01T11:27:50.231Z,93.55
2018-06-01T11:28:50.244Z,98.30
2018-06-01T11:29:50.252Z,99.99
2018-06-01T11:30:50.262Z,96.22
2018-06-01T11:31:50.271Z,94.86
2018-06-01T11:32:50.282Z,95.00
2018-06-01T11:33:50.293Z,99.12
2018-06-01T11:34:50.305Z,99.46
2018-06-01T11:35:50.316Z,99.02
2018-06-01T11:36:50.322Z,97.47
2018-06-01T11:37:50.332Z,94.85
2018-06-01T11:38:50.346Z,92.87
2018-06-01T11:39:50.353Z,96.65
2018-06-01T11:40:50.361Z,97.33
2018-06-01T11:41:50.373Z,98.15
2018-06-01T11:42:50.383Z,95.92
2018-06-01T11:43:50.393Z,94.57
2018-06-01T11:44:50.410Z,94.42
2018-06-01T11:45:50.413Z,91.08
2018-06-01T11:46:50.424Z,91.31
2018-06-01T11:47:50.433Z,90.98
2018-06-01T11:48:50.442Z,92.09
2018-06-01T11:49:50.453Z,91.89
2018-06-01T11:50:50.464Z,94.95
2018-06-01T11:51:50.473Z,93.11
2018-06-01T11:52:50.482Z,97.13
2018-06-01T11:53:50.493Z,96.02
2018-06-01T11:54:50.503Z,94.51
2018-06-01T11:55:50.513Z,93.70
2018-06-01T11:56:50.523Z,93.64
2018-06-01T11:57:50.533Z,93.11
2018-06-01T11:58:50.544Z,94.85
2018-06-01T11:59:50.554Z,95.10
2018-06-01T12:00:50.564Z,93.88
2018-06-01T12:01:50.574Z,93.02
2018-06-01T12:02:50.585Z,92.09
2018-06-01T12:03:50.595Z,93.06
2018-06-01T12:04:50.611Z,91.31
2018-06-01T12:05:50.615Z,91.36
2018-06-01T12:06:50.628Z,90.10
2018-06-01T12:07:50.636Z,88.65
2018-06-01T12:08:50.646Z,89.23
2018-06-01T12:09:50.657Z,87.38
2018-06-01T12:10:50.675Z,86.36
2018-06-01T12:11:50.678Z,83.74
2018-06-01T12:12:50.689Z,85.39
2018-06-01T12:13:50.706Z,84.56
2018-06-01T12:14:50.710Z,87.29
2018-06-01T12:15:50.719Z,88.65
2018-06-01T12:16:50.730Z,90.06
2018-06-01T12:17:50.791Z,91.37
2018-06-01T12:18:50.752Z,92.33
2018-06-01T12:19:50.761Z,94.42
2018-06-01T12:20:50.772Z,96.26
2018-06-01T12:21:50.782Z,93.88
2018-06-01T12:22:50.793Z,93.50
2018-06-01T12:23:50.803Z,93.16
2018-06-01T12:24:50.815Z,93.06
2018-06-01T12:25:50.824Z,92.38
2018-06-01T12:26:50.842Z,92.09
2018-06-01T12:27:50.844Z,91.61
2018-06-01T12:28:50.855Z,90.54
2018-06-01T12:29:50.865Z,91.51
2018-06-01T12:30:50.878Z,89.96
2018-06-01T12:31:50.885Z,89.81
2018-06-01T12:32:50.898Z,90.58
2018-06-01T12:33:50.906Z,88.84
2018-06-01T12:34:50.921Z,90.30
2018-06-01T12:35:50.928Z,89.13
2018-06-01T12:36:50.939Z,91.65
2018-06-01T12:37:50.947Z,91.61
2018-06-01T12:38:50.958Z,92.82
2018-06-01T12:39:50.968Z,93.35
2018-06-01T12:40:50.979Z,92.86
2018-06-01T12:41:50.994Z,90.83
2018-06-01T12:42:51.001Z,91.41
2018-06-01T12:43:51.010Z,89.90
2018-06-01T12:44:51.021Z,89.13
2018-06-01T12:45:51.033Z,91.55
2018-06-01T12:46:51.042Z,92.08
2018-06-01T12:47:51.051Z,93.11
2018-06-01T12:48:51.061Z,93.49
2018-06-01T12:49:51.072Z,93.88
2018-06-01T12:50:51.084Z,92.96
2018-06-01T12:51:51.094Z,91.71
2018-06-01T12:52:51.104Z,92.09